Moffett Field, CA

8:31 AM PDT on September 22, 2014 (GMT -0700)
Moffett Federal Air Field | Change Station
CLOSE
Current Station
Airport
Location: Moffett NAS,
Elevation: 39 ft
Nearby Weather Stations

Elev 39 ft 37.41 °N, 122.05 °W | Updated 35 minutes ago

Overcast
Overcast
64 °F
Feels Like 64 °F
N
0
Wind Variable Wind from North

Today
High -- | Low -- °F
--% Chance of Precip.
Yesterday
High -- | Low -- °F
Precip. -- in
6:56 AM 7:04 PM
Waning Crescent, 2% visible
Pressure 30.04 in
Visibility 10.0 miles
Clouds Overcast 1600 ft
Dew Point 57 °F
Humidity 78%
Rainfall 0.00 in
Snow Depth 0 in , 1 in , 0 in
UV 0 out of 12
Pollen 3.70 out of 12
Ozone Good
PM2.5 Good
Flu Activity Not available.
METAR KNUQ 221456Z 00000KT 10SM OVC016 18/14 A3003 RMK AO2 SLP172 T01780139 53005

More Conditions Fewer Conditions

Pressure 30.04 in
Visibility 10.0 miles
Clouds Overcast 1600 ft
Dew Point 57 °F
Humidity 78%
Rainfall 0.00 in
Snow Depth 0 in , 1 in , 0 in
UV 0 out of 12
Pollen 3.70 out of 12
Ozone Good
PM2.5 Good
Flu Activity Not available.
METAR KNUQ 221456Z 00000KT 10SM OVC016 18/14 A3003 RMK AO2 SLP172 T01780139 53005

More Conditions Fewer Conditions

10-Day Weather Forecast

Almanac

Astronomy

Sep. 22, 2014 Rise Set
Actual Time 6:56 AM PDT 7:04 PM PDT
Civil Twilight 6:30 AM PDT 7:30 PM PDT
Nautical Twilight 5:59 AM PDT 8:01 PM PDT
Astronomical Twilight 5:28 AM PDT 8:32 PM PDT
Moon 5:30 AM PDT 6:14 PM PDT
Length of Visible Light 13h 00m
Length of Day
12h 08m
Tomorrow will be 2m 24s shorter.
Waning Crescent, 2% of the Moon is Illuminated
Today
Waning Crescent
Sep 24
New
Oct 1
First Quarter
Oct 8
Full
Oct 15
Last Quarter

Today's Extremes

State Highs State Lows

Community

WunderPhotos

Upload Photos

1,755,464 photos uploaded!

Nearby

Air Quality

  Air Quality AQ Index Pollutant
Yesterday Good
OZONE
Yesterday Good
PM2.5
Current Good
PM2.5
Current Good
OZONE
Monday Good
PM2.5
Tuesday Good
PM2.5
Wednesday Good
OZONE
Thursday Good
OZONE
Friday Good
OZONE

Snow Depth

Station Depth Elevation
Squaw Valley 0 in 8200 ft
Burnside Lake 1 in 8139 ft
Sonora Pass 0 in 8800 ft
Summit Meadow 1 in 9122 ft
Independence Camp 0 in 7000 ft

Earthquake Activity

City Distance Mag. Time & Date
Sonoma, California 66 miles 2.7 1:17 PM PDT
2014-09-21
Cloverdale, California 108 miles 2.5 9:15 PM PDT
2014-09-20
Livermore, California 25 miles 2.6 3:37 AM PDT
2014-09-19
Minimum magnitude displayed is 2.5.

Coastal Water Temperatures

Place Temperature
No Stations Reporting

Nearby Weather Stations